TAF for South-East England Channel Islands and France - 19 Feb 2018 - 0142 UTC - RocketRoute WX - rrwx.com
LFOB 182300Z 1900/1924 14005KT CAVOK BECMG 1910/1913 OVC012 TEMPO 1913/1924 2000 DZRA OVC002 LFBD 182300Z 1900/2006 11004KT 7000 BKN012 PROB40 1900/2006 1500 DZ OVC004 PROB30 TEMPO 1900/1906 0500 FG OVC002 TX10/1914Z TN07/1906Z EGHH 182001Z 1821/1906 14005KT 8000 BKN007 TEMPO 1821/1906 2500 -RADZ BR BKN003 PROB40 1821/1906 0200 FG BKN001 LFRB 182300Z 1900/2006 33007KT 0900 FG VV/// TEMPO 1900/1909 2000 DZ OVC003 BECMG 1912/1915 5000 BKN010 TEMPO 1922/2006 3000 DZ OVC005 LFRK   LFRC   LFRG   LFRD 182300Z 1900/1924 VRB03KT 4000 BR OVC010 TEMPO 1900/1920 2000 DZ BKN002 PROB30 TEMPO 1900/1908 0800 FG VV/// BECMG 1908/1910 6000 NSW BECMG 1911/1913 30008KT BECMG 1916/1918 31012KT BECMG 1920/1922 BKN015 PROB40 TEMPO 1920/1924 3000 DZ BKN005 EGLF   EGJB 182258Z 1900/1909 31007KT 0200 DZ FG BKN000 PROB30 TEMPO 1900/1909 -DZ 0800 EGJJ 182258Z 1900/1909 VRB03KT 0200 DZ FG BKN000 PROB30 TEMPO 1900/1909 -DZ 0600 BECMG 1907/1909 32008KT LFPB 182300Z 1900/1924 15006KT CAVOK PROB30 TEMPO 1902/1906 4000 BR BECMG 1909/1911 BKN020 TEMPO 1911/1917 4000 -DZRA BECMG 1913/1916 BKN008 TEMPO 1918/1924 SCT002 BKN004 LFRM 181700Z 1818/1903 18004KT 9999 BKN020 TEMPO 1818/1903 4000 -RA BKN006 LFQQ 182300Z 1900/2006 16008KT 8000 NSC BECMG 1910/1913 OVC012 TEMPO 1913/1920 2000 DZ OVC006 FM192000 18005KT 8000 OVC006 BECMG 2004/2006 09010KT NSW EGGW AMD 190004Z 1900/1924 16005KT 6000 BKN004 BECMG 1901/1904 0300 -RADZ FG OVC000 TEMPO 1904/1924 3000 RADZ BKN003 BECMG 1910/1913 5000 -RADZ BKN005 BECMG 1915/1918 33010KT EGLC   EGKK 182300Z 1900/2006 18003KT 4000 -DZ BR BKN006 PROB30 TEMPO 1900/1910 0300 DZ FG BKN001 TEMPO 1910/2006 RADZ BKN003 BECMG 1912/1915 33010KT EGLL AMD 190135Z 1901/2006 18004KT 7000 BKN010 BECMG 1901/1903 BKN006 TEMPO 1901/1912 2000 RADZ BR BKN003 PROB30 TEMPO 1901/1908 1200 PROB30 TEMPO 1912/2006 3500 RADZ BKN004 EGSS 182307Z 1900/2006 15004KT 9999 OVC025 BECMG 1900/1903 5000 -RADZ BKN005 TEMPO 1903/1924 2000 RADZ BKN002 PROB40 1904/1912 0300 FG OVC000 BECMG 1916/1919 33010KT PROB40 1921/2006 0300 FG BKN001 LFPO 182300Z 1900/2006 13005KT CAVOK TEMPO 1900/1903 2500 BR TEMPO 1912/1924 4000 -RA BKN014 PROB40 TEMPO 1915/1918 2000 -RA BKN007 PROB30 TEMPO 1918/2006 1500 BR BKN004 LFPG 182300Z 1900/2006 15006KT CAVOK PROB30 TEMPO 1902/1906 4000 BR BECMG 1909/1911 BKN020 TEMPO 1911/1917 4000 -DZRA BECMG 1913/1916 BKN008 TEMPO 1918/2006 SCT002 BKN004 TX07/1915Z TN01/1903Z LFRN 182300Z 1900/1924 VRB03KT 6000 OVC010 TEMPO 1900/1920 3000 DZ BR BKN003 PROB30 TEMPO 1900/1908 1500 BR VV/// BECMG 1915/1917 32010KT BECMG 1920/1922 BKN015 PROB40 TEMPO 1920/1924 3000 DZ BKN005 EGHI   EGMC 182307Z 1900/1909 15005KT 9999 FEW035 BECMG 1900/1903 BKN009 TEMPO 1904/1909 3000 RADZ BKN004 LFPN 181700Z 1818/1903 16004KT CAVOK TEMPO 1820/1903 3000 BR

RocketRoute WX - rrwx.com weather for pilots